This is the latest recevied weather packets stored in our database for station/object BARLOW-WX. If no packets are shown the sender has not sent any weather packets the latest 10 day(s).
| Time | Temp. | Humidity | Pressure | Rain* | Wind** | Luminosity | Snow |
|---|---|---|---|---|---|---|---|
| 1777055495 | 23.33° C | 61% | 978.2 hPa | 0 mm | - | - | - |
| 1777054581 | 22.78° C | 61% | 978.2 hPa | 0 mm | - | - | - |
| 1777053707 | 23.33° C | 61% | 978.2 hPa | 0 mm | - | - | - |
| 1777052781 | 23.33° C | 63% | 977.6 hPa | 0 mm | - | - | - |
| 1777051890 | 23.89° C | 56% | 978.1 hPa | 0 mm | - | - | - |
| 1777050981 | 23.33° C | 56% | 978.1 hPa | 0 mm | - | - | - |
| 1777050100 | 23.89° C | 56% | 978.1 hPa | 0 mm | - | - | - |
| 1777049180 | 23.89° C | 57% | 977.7 hPa | 0 mm | - | - | - |
| 1777048291 | 24.44° C | 56% | 977.7 hPa | 0 mm | - | - | - |
| 1777047380 | 23.89° C | 56% | 977.7 hPa | 0 mm | - | - | - |
| 1777046505 | 23.89° C | 56% | 977.7 hPa | 0 mm | - | - | - |
| 1777045581 | 23.33° C | 57% | 977.4 hPa | 0 mm | - | - | - |
| 1777044697 | 23.33° C | 56% | 977.9 hPa | 0 mm | - | - | - |
| 1777043780 | 23.33° C | 56% | 978 hPa | 0 mm | - | - | - |
| 1777042903 | 22.78° C | 56% | 978 hPa | 0 mm | - | - | - |
| 1777041980 | 22.78° C | 64% | 977.4 hPa | 0 mm | - | - | - |
| 1777041093 | 22.22° C | 63% | 977.9 hPa | 0 mm | - | - | - |
| 1777040180 | 21.67° C | 63% | 977.9 hPa | 0 mm | - | - | - |
| 1777039314 | 21.11° C | 63% | 977.9 hPa | 0 mm | - | - | - |
| 1777038380 | 20.56° C | 65% | 978.4 hPa | 0 mm | - | - | - |
| 1777037491 | 20.56° C | 65% | 978.4 hPa | 0 mm | - | - | - |
| 1777036579 | 19.44° C | 65% | 978.3 hPa | 0 mm | - | - | - |
| 1777035703 | 18.89° C | 65% | 978.3 hPa | 0 mm | - | - | - |
| 1777034779 | 18.33° C | 69% | 978.2 hPa | 0 mm | - | - | - |
| 1777033894 | 17.78° C | 70% | 978.4 hPa | 0 mm | - | - | - |
* Rain latest hour (hover to see other rain measurements)
** Current wind speed in m/s (hover to see current wind gust speed)